sensor_id;sensor_type;location;lat;lon;timestamp;P1;durP1;ratioP1;P2;durP2;ratioP2
23743;SDS011;12052;53.478;10.182;2023-06-26T00:02:13;8.90;;;6.97;;
23743;SDS011;12052;53.478;10.182;2023-06-26T00:04:39;10.55;;;7.10;;
23743;SDS011;12052;53.478;10.182;2023-06-26T00:07:04;8.45;;;6.88;;
23743;SDS011;12052;53.478;10.182;2023-06-26T00:09:30;10.23;;;7.35;;
23743;SDS011;12052;53.478;10.182;2023-06-26T00:11:56;9.35;;;7.70;;
23743;SDS011;12052;53.478;10.182;2023-06-26T00:14:22;11.15;;;7.28;;
23743;SDS011;12052;53.478;10.182;2023-06-26T00:16:47;9.10;;;6.88;;
23743;SDS011;12052;53.478;10.182;2023-06-26T00:19:16;10.95;;;7.13;;
23743;SDS011;12052;53.478;10.182;2023-06-26T00:21:42;10.63;;;6.93;;
23743;SDS011;12052;53.478;10.182;2023-06-26T00:24:15;9.50;;;7.38;;
23743;SDS011;12052;53.478;10.182;2023-06-26T00:26:41;10.68;;;6.80;;
23743;SDS011;12052;53.478;10.182;2023-06-26T00:29:07;8.80;;;6.75;;
23743;SDS011;12052;53.478;10.182;2023-06-26T00:31:33;10.63;;;7.43;;
23743;SDS011;12052;53.478;10.182;2023-06-26T00:34:00;10.13;;;7.18;;
23743;SDS011;12052;53.478;10.182;2023-06-26T00:36:26;9.80;;;7.95;;
23743;SDS011;12052;53.478;10.182;2023-06-26T00:38:52;9.90;;;7.20;;
23743;SDS011;12052;53.478;10.182;2023-06-26T00:41:18;15.23;;;8.70;;
23743;SDS011;12052;53.478;10.182;2023-06-26T00:43:44;9.60;;;7.63;;
23743;SDS011;12052;53.478;10.182;2023-06-26T00:46:10;11.63;;;7.85;;
23743;SDS011;12052;53.478;10.182;2023-06-26T00:48:38;12.77;;;7.97;;
23743;SDS011;12052;53.478;10.182;2023-06-26T00:51:06;9.88;;;7.93;;
23743;SDS011;12052;53.478;10.182;2023-06-26T00:53:32;10.95;;;7.88;;
23743;SDS011;12052;53.478;10.182;2023-06-26T00:55:58;11.38;;;8.00;;
23743;SDS011;12052;53.478;10.182;2023-06-26T00:58:25;11.82;;;8.02;;
23743;SDS011;12052;53.478;10.182;2023-06-26T01:00:51;11.13;;;8.02;;
23743;SDS011;12052;53.478;10.182;2023-06-26T01:03:17;10.43;;;7.72;;
23743;SDS011;12052;53.478;10.182;2023-06-26T01:05:44;9.82;;;7.70;;
23743;SDS011;12052;53.478;10.182;2023-06-26T01:08:11;9.68;;;7.30;;
23743;SDS011;12052;53.478;10.182;2023-06-26T01:10:38;11.20;;;8.43;;
23743;SDS011;12052;53.478;10.182;2023-06-26T01:13:04;11.18;;;7.15;;
23743;SDS011;12052;53.478;10.182;2023-06-26T01:15:30;11.05;;;7.75;;
23743;SDS011;12052;53.478;10.182;2023-06-26T01:17:56;11.00;;;7.57;;
23743;SDS011;12052;53.478;10.182;2023-06-26T01:20:24;10.10;;;7.65;;
23743;SDS011;12052;53.478;10.182;2023-06-26T01:25:37;11.02;;;8.07;;
23743;SDS011;12052;53.478;10.182;2023-06-26T01:28:05;10.40;;;7.68;;
23743;SDS011;12052;53.478;10.182;2023-06-26T01:30:32;9.80;;;7.68;;
23743;SDS011;12052;53.478;10.182;2023-06-26T01:32:59;10.52;;;7.53;;
23743;SDS011;12052;53.478;10.182;2023-06-26T01:35:26;9.45;;;6.78;;
23743;SDS011;12052;53.478;10.182;2023-06-26T01:37:52;9.25;;;7.30;;
23743;SDS011;12052;53.478;10.182;2023-06-26T01:40:18;10.57;;;7.65;;
23743;SDS011;12052;53.478;10.182;2023-06-26T01:42:43;10.15;;;7.50;;
23743;SDS011;12052;53.478;10.182;2023-06-26T01:45:11;9.73;;;6.90;;
23743;SDS011;12052;53.478;10.182;2023-06-26T01:47:43;8.90;;;6.85;;
23743;SDS011;12052;53.478;10.182;2023-06-26T01:50:15;13.18;;;7.53;;
23743;SDS011;12052;53.478;10.182;2023-06-26T01:52:53;10.48;;;6.82;;
23743;SDS011;12052;53.478;10.182;2023-06-26T01:55:50;9.27;;;7.13;;
23743;SDS011;12052;53.478;10.182;2023-06-26T01:58:22;11.02;;;7.30;;
23743;SDS011;12052;53.478;10.182;2023-06-26T02:00:50;10.82;;;7.47;;
23743;SDS011;12052;53.478;10.182;2023-06-26T02:03:15;8.80;;;6.93;;
23743;SDS011;12052;53.478;10.182;2023-06-26T02:05:41;11.90;;;7.40;;
23743;SDS011;12052;53.478;10.182;2023-06-26T02:08:08;9.50;;;7.28;;
23743;SDS011;12052;53.478;10.182;2023-06-26T02:10:33;8.43;;;6.93;;
23743;SDS011;12052;53.478;10.182;2023-06-26T02:13:00;10.00;;;7.35;;
23743;SDS011;12052;53.478;10.182;2023-06-26T02:15:26;8.50;;;6.60;;
23743;SDS011;12052;53.478;10.182;2023-06-26T02:17:51;11.20;;;7.10;;
23743;SDS011;12052;53.478;10.182;2023-06-26T02:20:17;10.35;;;7.13;;
23743;SDS011;12052;53.478;10.182;2023-06-26T02:22:43;8.68;;;6.25;;
23743;SDS011;12052;53.478;10.182;2023-06-26T02:25:09;9.98;;;6.55;;
23743;SDS011;12052;53.478;10.182;2023-06-26T02:27:35;10.52;;;7.10;;
23743;SDS011;12052;53.478;10.182;2023-06-26T02:30:01;8.65;;;6.47;;
23743;SDS011;12052;53.478;10.182;2023-06-26T02:32:26;9.77;;;6.93;;
23743;SDS011;12052;53.478;10.182;2023-06-26T02:34:52;9.40;;;6.78;;
23743;SDS011;12052;53.478;10.182;2023-06-26T02:37:18;11.50;;;6.60;;
23743;SDS011;12052;53.478;10.182;2023-06-26T02:39:44;9.98;;;6.30;;
23743;SDS011;12052;53.478;10.182;2023-06-26T02:42:10;10.80;;;7.45;;
23743;SDS011;12052;53.478;10.182;2023-06-26T02:44:35;8.45;;;6.53;;
23743;SDS011;12052;53.478;10.182;2023-06-26T02:47:01;10.93;;;7.15;;
23743;SDS011;12052;53.478;10.182;2023-06-26T02:49:27;12.77;;;7.35;;
23743;SDS011;12052;53.478;10.182;2023-06-26T02:51:52;9.60;;;6.78;;
23743;SDS011;12052;53.478;10.182;2023-06-26T02:54:18;8.98;;;6.47;;
23743;SDS011;12052;53.478;10.182;2023-06-26T02:56:43;9.30;;;6.60;;
23743;SDS011;12052;53.478;10.182;2023-06-26T02:59:09;14.98;;;6.93;;
23743;SDS011;12052;53.478;10.182;2023-06-26T03:01:34;9.10;;;6.32;;
23743;SDS011;12052;53.478;10.182;2023-06-26T03:04:00;10.35;;;7.15;;
23743;SDS011;12052;53.478;10.182;2023-06-26T03:06:26;9.95;;;6.80;;
23743;SDS011;12052;53.478;10.182;2023-06-26T03:08:52;8.98;;;6.22;;
23743;SDS011;12052;53.478;10.182;2023-06-26T03:11:19;9.60;;;6.57;;
23743;SDS011;12052;53.478;10.182;2023-06-26T03:13:44;8.48;;;6.78;;
23743;SDS011;12052;53.478;10.182;2023-06-26T03:16:10;8.40;;;6.90;;
23743;SDS011;12052;53.478;10.182;2023-06-26T03:18:36;10.68;;;6.57;;
23743;SDS011;12052;53.478;10.182;2023-06-26T03:21:01;9.35;;;6.55;;
23743;SDS011;12052;53.478;10.182;2023-06-26T03:23:27;10.15;;;6.85;;
23743;SDS011;12052;53.478;10.182;2023-06-26T03:25:53;8.73;;;6.82;;
23743;SDS011;12052;53.478;10.182;2023-06-26T03:28:18;9.07;;;6.63;;
23743;SDS011;12052;53.478;10.182;2023-06-26T03:30:44;8.65;;;6.38;;
23743;SDS011;12052;53.478;10.182;2023-06-26T03:33:10;13.00;;;6.85;;
23743;SDS011;12052;53.478;10.182;2023-06-26T03:35:35;11.75;;;7.13;;
23743;SDS011;12052;53.478;10.182;2023-06-26T03:38:01;11.32;;;7.03;;
23743;SDS011;12052;53.478;10.182;2023-06-26T03:40:28;9.68;;;6.75;;
23743;SDS011;12052;53.478;10.182;2023-06-26T03:42:54;10.65;;;6.43;;
23743;SDS011;12052;53.478;10.182;2023-06-26T03:45:19;10.38;;;6.85;;
23743;SDS011;12052;53.478;10.182;2023-06-26T03:47:45;9.50;;;6.72;;
23743;SDS011;12052;53.478;10.182;2023-06-26T03:50:13;8.32;;;6.70;;
23743;SDS011;12052;53.478;10.182;2023-06-26T03:52:40;11.45;;;6.47;;
23743;SDS011;12052;53.478;10.182;2023-06-26T03:55:08;9.80;;;6.70;;
23743;SDS011;12052;53.478;10.182;2023-06-26T03:57:34;9.27;;;6.60;;
23743;SDS011;12052;53.478;10.182;2023-06-26T04:00:00;8.85;;;5.95;;
23743;SDS011;12052;53.478;10.182;2023-06-26T04:02:26;9.10;;;6.45;;
23743;SDS011;12052;53.478;10.182;2023-06-26T04:04:51;11.20;;;6.57;;
23743;SDS011;12052;53.478;10.182;2023-06-26T04:07:17;8.10;;;5.75;;
23743;SDS011;12052;53.478;10.182;2023-06-26T04:09:43;8.35;;;5.95;;
23743;SDS011;12052;53.478;10.182;2023-06-26T04:12:09;9.80;;;6.55;;
23743;SDS011;12052;53.478;10.182;2023-06-26T04:14:35;11.13;;;7.30;;
23743;SDS011;12052;53.478;10.182;2023-06-26T04:17:01;9.25;;;6.53;;
23743;SDS011;12052;53.478;10.182;2023-06-26T04:19:28;10.07;;;7.03;;
23743;SDS011;12052;53.478;10.182;2023-06-26T04:21:54;7.95;;;5.68;;
23743;SDS011;12052;53.478;10.182;2023-06-26T04:24:20;9.90;;;6.57;;
23743;SDS011;12052;53.478;10.182;2023-06-26T04:26:45;8.55;;;5.78;;
23743;SDS011;12052;53.478;10.182;2023-06-26T04:29:11;8.68;;;6.50;;
23743;SDS011;12052;53.478;10.182;2023-06-26T04:31:36;9.63;;;6.95;;
23743;SDS011;12052;53.478;10.182;2023-06-26T04:34:03;10.80;;;6.43;;
23743;SDS011;12052;53.478;10.182;2023-06-26T04:36:29;8.23;;;6.30;;
23743;SDS011;12052;53.478;10.182;2023-06-26T04:38:56;9.40;;;6.93;;
23743;SDS011;12052;53.478;10.182;2023-06-26T04:41:22;9.32;;;6.28;;
23743;SDS011;12052;53.478;10.182;2023-06-26T04:43:47;9.88;;;6.45;;
23743;SDS011;12052;53.478;10.182;2023-06-26T04:46:13;8.20;;;6.13;;
23743;SDS011;12052;53.478;10.182;2023-06-26T04:48:38;11.52;;;6.80;;
23743;SDS011;12052;53.478;10.182;2023-06-26T04:51:04;10.00;;;6.90;;
23743;SDS011;12052;53.478;10.182;2023-06-26T04:53:30;10.43;;;6.93;;
23743;SDS011;12052;53.478;10.182;2023-06-26T04:55:55;7.65;;;5.85;;
23743;SDS011;12052;53.478;10.182;2023-06-26T04:58:21;9.35;;;6.80;;
23743;SDS011;12052;53.478;10.182;2023-06-26T05:00:46;9.43;;;6.50;;
23743;SDS011;12052;53.478;10.182;2023-06-26T05:03:13;7.55;;;6.00;;
23743;SDS011;12052;53.478;10.182;2023-06-26T05:05:39;8.32;;;5.80;;
23743;SDS011;12052;53.478;10.182;2023-06-26T05:08:14;9.75;;;6.38;;
23743;SDS011;12052;53.478;10.182;2023-06-26T05:10:45;7.28;;;5.43;;
23743;SDS011;12052;53.478;10.182;2023-06-26T05:13:11;10.23;;;6.85;;
23743;SDS011;12052;53.478;10.182;2023-06-26T05:15:40;12.00;;;6.28;;
23743;SDS011;12052;53.478;10.182;2023-06-26T05:18:06;8.98;;;6.22;;
23743;SDS011;12052;53.478;10.182;2023-06-26T05:20:31;8.50;;;6.22;;
23743;SDS011;12052;53.478;10.182;2023-06-26T05:22:57;11.00;;;6.30;;
23743;SDS011;12052;53.478;10.182;2023-06-26T05:25:23;9.13;;;6.35;;
23743;SDS011;12052;53.478;10.182;2023-06-26T05:27:51;8.15;;;5.70;;
23743;SDS011;12052;53.478;10.182;2023-06-26T05:30:17;8.30;;;5.97;;
23743;SDS011;12052;53.478;10.182;2023-06-26T05:32:43;8.23;;;5.82;;
23743;SDS011;12052;53.478;10.182;2023-06-26T05:35:12;8.20;;;5.82;;
23743;SDS011;12052;53.478;10.182;2023-06-26T05:37:38;8.55;;;6.57;;
23743;SDS011;12052;53.478;10.182;2023-06-26T05:40:05;7.03;;;4.85;;
23743;SDS011;12052;53.478;10.182;2023-06-26T05:42:32;9.55;;;6.95;;
23743;SDS011;12052;53.478;10.182;2023-06-26T05:44:58;8.68;;;5.72;;
23743;SDS011;12052;53.478;10.182;2023-06-26T05:47:24;12.07;;;6.32;;
23743;SDS011;12052;53.478;10.182;2023-06-26T05:49:49;8.95;;;6.03;;
23743;SDS011;12052;53.478;10.182;2023-06-26T05:52:15;10.02;;;6.28;;
23743;SDS011;12052;53.478;10.182;2023-06-26T05:54:41;10.50;;;6.60;;
23743;SDS011;12052;53.478;10.182;2023-06-26T05:57:07;7.88;;;5.88;;
23743;SDS011;12052;53.478;10.182;2023-06-26T05:59:33;8.02;;;5.57;;
23743;SDS011;12052;53.478;10.182;2023-06-26T06:02:01;10.65;;;6.35;;
23743;SDS011;12052;53.478;10.182;2023-06-26T06:04:27;7.15;;;5.35;;
23743;SDS011;12052;53.478;10.182;2023-06-26T06:06:53;10.77;;;5.82;;
23743;SDS011;12052;53.478;10.182;2023-06-26T06:09:18;7.53;;;5.80;;
23743;SDS011;12052;53.478;10.182;2023-06-26T06:11:44;10.07;;;5.57;;
23743;SDS011;12052;53.478;10.182;2023-06-26T06:14:10;8.25;;;5.28;;
23743;SDS011;12052;53.478;10.182;2023-06-26T06:16:35;7.97;;;5.72;;
23743;SDS011;12052;53.478;10.182;2023-06-26T06:19:01;9.35;;;5.88;;
23743;SDS011;12052;53.478;10.182;2023-06-26T06:21:28;8.75;;;5.82;;
23743;SDS011;12052;53.478;10.182;2023-06-26T06:23:53;12.07;;;6.20;;
23743;SDS011;12052;53.478;10.182;2023-06-26T06:26:19;8.52;;;6.13;;
23743;SDS011;12052;53.478;10.182;2023-06-26T06:28:45;8.27;;;4.93;;
23743;SDS011;12052;53.478;10.182;2023-06-26T06:31:10;7.93;;;5.25;;
23743;SDS011;12052;53.478;10.182;2023-06-26T06:33:36;7.97;;;5.30;;
23743;SDS011;12052;53.478;10.182;2023-06-26T06:36:01;7.70;;;5.75;;
23743;SDS011;12052;53.478;10.182;2023-06-26T06:38:27;8.07;;;5.05;;
23743;SDS011;12052;53.478;10.182;2023-06-26T06:40:52;6.18;;;5.15;;
23743;SDS011;12052;53.478;10.182;2023-06-26T06:43:18;7.45;;;5.43;;
23743;SDS011;12052;53.478;10.182;2023-06-26T06:45:44;5.68;;;4.80;;
23743;SDS011;12052;53.478;10.182;2023-06-26T06:48:10;7.40;;;4.85;;
23743;SDS011;12052;53.478;10.182;2023-06-26T06:50:35;6.78;;;5.28;;
23743;SDS011;12052;53.478;10.182;2023-06-26T06:53:01;7.20;;;5.38;;
23743;SDS011;12052;53.478;10.182;2023-06-26T06:55:27;8.63;;;5.25;;
23743;SDS011;12052;53.478;10.182;2023-06-26T06:57:52;6.75;;;4.93;;
23743;SDS011;12052;53.478;10.182;2023-06-26T07:00:18;8.68;;;4.97;;
23743;SDS011;12052;53.478;10.182;2023-06-26T07:02:44;7.07;;;5.00;;
23743;SDS011;12052;53.478;10.182;2023-06-26T07:05:11;8.13;;;4.70;;
23743;SDS011;12052;53.478;10.182;2023-06-26T07:07:37;7.28;;;5.20;;
23743;SDS011;12052;53.478;10.182;2023-06-26T07:10:04;7.88;;;4.93;;
23743;SDS011;12052;53.478;10.182;2023-06-26T07:12:32;5.40;;;4.68;;
23743;SDS011;12052;53.478;10.182;2023-06-26T07:14:58;6.68;;;4.75;;
23743;SDS011;12052;53.478;10.182;2023-06-26T07:17:25;9.23;;;4.63;;
23743;SDS011;12052;53.478;10.182;2023-06-26T07:19:50;7.15;;;4.70;;
23743;SDS011;12052;53.478;10.182;2023-06-26T07:22:16;6.97;;;4.60;;
23743;SDS011;12052;53.478;10.182;2023-06-26T07:24:43;9.07;;;5.20;;
23743;SDS011;12052;53.478;10.182;2023-06-26T07:27:09;8.55;;;4.82;;
23743;SDS011;12052;53.478;10.182;2023-06-26T07:29:35;8.45;;;4.50;;
23743;SDS011;12052;53.478;10.182;2023-06-26T07:32:00;5.97;;;4.03;;
23743;SDS011;12052;53.478;10.182;2023-06-26T07:34:26;5.97;;;4.35;;
23743;SDS011;12052;53.478;10.182;2023-06-26T07:36:52;6.72;;;5.00;;
23743;SDS011;12052;53.478;10.182;2023-06-26T07:39:18;6.88;;;4.85;;
23743;SDS011;12052;53.478;10.182;2023-06-26T07:41:43;8.20;;;4.70;;
23743;SDS011;12052;53.478;10.182;2023-06-26T07:44:09;7.88;;;4.95;;
23743;SDS011;12052;53.478;10.182;2023-06-26T07:46:35;6.22;;;4.47;;
23743;SDS011;12052;53.478;10.182;2023-06-26T07:49:00;6.10;;;4.40;;
23743;SDS011;12052;53.478;10.182;2023-06-26T07:51:26;7.53;;;5.13;;
23743;SDS011;12052;53.478;10.182;2023-06-26T07:53:51;6.55;;;4.88;;
23743;SDS011;12052;53.478;10.182;2023-06-26T07:56:17;5.32;;;4.70;;
23743;SDS011;12052;53.478;10.182;2023-06-26T07:58:43;6.72;;;5.07;;
23743;SDS011;12052;53.478;10.182;2023-06-26T08:01:08;8.35;;;5.30;;
23743;SDS011;12052;53.478;10.182;2023-06-26T08:03:34;6.43;;;4.78;;
23743;SDS011;12052;53.478;10.182;2023-06-26T08:05:59;9.05;;;5.38;;
23743;SDS011;12052;53.478;10.182;2023-06-26T08:08:25;9.43;;;5.10;;
23743;SDS011;12052;53.478;10.182;2023-06-26T08:10:50;6.80;;;4.40;;
23743;SDS011;12052;53.478;10.182;2023-06-26T08:13:16;5.68;;;4.57;;
23743;SDS011;12052;53.478;10.182;2023-06-26T08:15:42;6.75;;;4.47;;
23743;SDS011;12052;53.478;10.182;2023-06-26T08:18:07;6.97;;;4.75;;
23743;SDS011;12052;53.478;10.182;2023-06-26T08:20:33;8.20;;;4.63;;
23743;SDS011;12052;53.478;10.182;2023-06-26T08:23:00;7.80;;;4.35;;
23743;SDS011;12052;53.478;10.182;2023-06-26T08:25:26;7.55;;;5.18;;
23743;SDS011;12052;53.478;10.182;2023-06-26T08:27:51;6.28;;;4.82;;
23743;SDS011;12052;53.478;10.182;2023-06-26T08:30:18;6.68;;;4.93;;
23743;SDS011;12052;53.478;10.182;2023-06-26T08:32:44;6.97;;;4.85;;
23743;SDS011;12052;53.478;10.182;2023-06-26T08:35:10;9.75;;;5.05;;
23743;SDS011;12052;53.478;10.182;2023-06-26T08:37:35;12.27;;;5.00;;
23743;SDS011;12052;53.478;10.182;2023-06-26T08:40:01;15.68;;;4.72;;
23743;SDS011;12052;53.478;10.182;2023-06-26T08:42:26;8.82;;;4.53;;
23743;SDS011;12052;53.478;10.182;2023-06-26T08:44:52;6.50;;;5.05;;
23743;SDS011;12052;53.478;10.182;2023-06-26T08:47:17;5.03;;;4.30;;
23743;SDS011;12052;53.478;10.182;2023-06-26T08:54:57;7.10;;;4.68;;
23743;SDS011;12052;53.478;10.182;2023-06-26T08:57:24;6.68;;;4.80;;
23743;SDS011;12052;53.478;10.182;2023-06-26T08:59:51;8.32;;;4.85;;
23743;SDS011;12052;53.478;10.182;2023-06-26T09:02:17;8.35;;;5.43;;
23743;SDS011;12052;53.478;10.182;2023-06-26T09:04:45;10.23;;;4.97;;
23743;SDS011;12052;53.478;10.182;2023-06-26T09:07:12;6.13;;;4.80;;
23743;SDS011;12052;53.478;10.182;2023-06-26T09:09:38;7.95;;;5.03;;
23743;SDS011;12052;53.478;10.182;2023-06-26T09:12:04;7.00;;;4.90;;
23743;SDS011;12052;53.478;10.182;2023-06-26T09:14:30;10.98;;;4.90;;
23743;SDS011;12052;53.478;10.182;2023-06-26T09:16:55;7.85;;;4.95;;
23743;SDS011;12052;53.478;10.182;2023-06-26T09:19:21;7.13;;;4.97;;
23743;SDS011;12052;53.478;10.182;2023-06-26T09:21:48;5.68;;;4.70;;
23743;SDS011;12052;53.478;10.182;2023-06-26T09:24:16;8.98;;;5.30;;
23743;SDS011;12052;53.478;10.182;2023-06-26T09:26:41;8.70;;;5.38;;
23743;SDS011;12052;53.478;10.182;2023-06-26T09:29:08;9.13;;;5.55;;
23743;SDS011;12052;53.478;10.182;2023-06-26T09:31:38;8.05;;;5.60;;
23743;SDS011;12052;53.478;10.182;2023-06-26T09:34:05;7.30;;;5.68;;
23743;SDS011;12052;53.478;10.182;2023-06-26T09:36:31;7.63;;;5.68;;
23743;SDS011;12052;53.478;10.182;2023-06-26T09:39:04;8.93;;;5.95;;
23743;SDS011;12052;53.478;10.182;2023-06-26T09:41:35;9.25;;;5.95;;
23743;SDS011;12052;53.478;10.182;2023-06-26T09:44:03;9.48;;;6.72;;
23743;SDS011;12052;53.478;10.182;2023-06-26T09:46:29;9.25;;;6.45;;
23743;SDS011;12052;53.478;10.182;2023-06-26T09:49:06;15.38;;;7.35;;
23743;SDS011;12052;53.478;10.182;2023-06-26T09:51:34;11.23;;;6.65;;
23743;SDS011;12052;53.478;10.182;2023-06-26T09:54:01;10.98;;;6.82;;
23743;SDS011;12052;53.478;10.182;2023-06-26T09:56:27;11.20;;;7.50;;
23743;SDS011;12052;53.478;10.182;2023-06-26T09:58:57;11.25;;;7.65;;
23743;SDS011;12052;53.478;10.182;2023-06-26T10:01:25;11.65;;;7.03;;
23743;SDS011;12052;53.478;10.182;2023-06-26T10:03:51;9.60;;;6.28;;
23743;SDS011;12052;53.478;10.182;2023-06-26T10:06:36;9.27;;;6.53;;
23743;SDS011;12052;53.478;10.182;2023-06-26T10:09:06;14.02;;;7.07;;
23743;SDS011;12052;53.478;10.182;2023-06-26T10:11:45;10.60;;;6.28;;
23743;SDS011;12052;53.478;10.182;2023-06-26T10:14:15;9.13;;;5.72;;
23743;SDS011;12052;53.478;10.182;2023-06-26T10:16:42;9.23;;;5.43;;
23743;SDS011;12052;53.478;10.182;2023-06-26T10:19:09;10.25;;;6.85;;
23743;SDS011;12052;53.478;10.182;2023-06-26T10:21:37;11.13;;;7.10;;
23743;SDS011;12052;53.478;10.182;2023-06-26T10:24:05;11.93;;;7.45;;
23743;SDS011;12052;53.478;10.182;2023-06-26T10:26:31;11.90;;;8.15;;
23743;SDS011;12052;53.478;10.182;2023-06-26T10:29:03;11.88;;;7.93;;
23743;SDS011;12052;53.478;10.182;2023-06-26T10:31:30;14.43;;;8.43;;
23743;SDS011;12052;53.478;10.182;2023-06-26T10:33:58;16.45;;;8.45;;
23743;SDS011;12052;53.478;10.182;2023-06-26T10:36:28;16.67;;;5.70;;
23743;SDS011;12052;53.478;10.182;2023-06-26T10:38:55;7.63;;;4.20;;
23743;SDS011;12052;53.478;10.182;2023-06-26T10:41:23;8.50;;;3.88;;
23743;SDS011;12052;53.478;10.182;2023-06-26T10:46:24;6.63;;;4.60;;
23743;SDS011;12052;53.478;10.182;2023-06-26T10:48:59;7.93;;;4.13;;
23743;SDS011;12052;53.478;10.182;2023-06-26T10:51:26;5.68;;;4.20;;
23743;SDS011;12052;53.478;10.182;2023-06-26T10:53:55;6.93;;;4.05;;
23743;SDS011;12052;53.478;10.182;2023-06-26T10:56:40;7.65;;;4.53;;
23743;SDS011;12052;53.478;10.182;2023-06-26T10:59:14;8.20;;;4.70;;
23743;SDS011;12052;53.478;10.182;2023-06-26T11:01:41;8.85;;;4.63;;
23743;SDS011;12052;53.478;10.182;2023-06-26T11:04:08;7.80;;;5.25;;
23743;SDS011;12052;53.478;10.182;2023-06-26T11:06:35;9.05;;;4.63;;
23743;SDS011;12052;53.478;10.182;2023-06-26T11:14:17;11.05;;;6.60;;
23743;SDS011;12052;53.478;10.182;2023-06-26T11:16:44;13.90;;;8.38;;
23743;SDS011;12052;53.478;10.182;2023-06-26T11:19:10;17.40;;;9.60;;
23743;SDS011;12052;53.478;10.182;2023-06-26T11:21:37;13.02;;;9.27;;
23743;SDS011;12052;53.478;10.182;2023-06-26T11:24:04;15.45;;;9.52;;
23743;SDS011;12052;53.478;10.182;2023-06-26T11:26:31;16.45;;;9.57;;
23743;SDS011;12052;53.478;10.182;2023-06-26T11:29:06;17.70;;;10.68;;
23743;SDS011;12052;53.478;10.182;2023-06-26T11:31:40;18.48;;;10.13;;
23743;SDS011;12052;53.478;10.182;2023-06-26T11:34:08;15.68;;;8.77;;
23743;SDS011;12052;53.478;10.182;2023-06-26T11:36:36;16.38;;;8.73;;
23743;SDS011;12052;53.478;10.182;2023-06-26T11:39:04;17.77;;;9.18;;
23743;SDS011;12052;53.478;10.182;2023-06-26T11:41:31;17.35;;;7.85;;
23743;SDS011;12052;53.478;10.182;2023-06-26T11:44:02;11.52;;;6.38;;
23743;SDS011;12052;53.478;10.182;2023-06-26T11:46:28;11.82;;;5.97;;
23743;SDS011;12052;53.478;10.182;2023-06-26T11:48:55;10.30;;;6.18;;
23743;SDS011;12052;53.478;10.182;2023-06-26T11:51:20;9.73;;;5.40;;
23743;SDS011;12052;53.478;10.182;2023-06-26T11:53:46;12.52;;;5.28;;
23743;SDS011;12052;53.478;10.182;2023-06-26T11:56:17;10.05;;;4.70;;
23743;SDS011;12052;53.478;10.182;2023-06-26T12:01:40;9.30;;;4.38;;
23743;SDS011;12052;53.478;10.182;2023-06-26T12:04:08;5.47;;;3.63;;
23743;SDS011;12052;53.478;10.182;2023-06-26T12:06:35;7.15;;;3.75;;
23743;SDS011;12052;53.478;10.182;2023-06-26T12:09:04;5.47;;;2.40;;
23743;SDS011;12052;53.478;10.182;2023-06-26T12:11:31;7.88;;;3.00;;
23743;SDS011;12052;53.478;10.182;2023-06-26T12:13:59;5.10;;;2.85;;
23743;SDS011;12052;53.478;10.182;2023-06-26T12:16:25;5.07;;;2.00;;
23743;SDS011;12052;53.478;10.182;2023-06-26T12:18:57;5.90;;;2.50;;
23743;SDS011;12052;53.478;10.182;2023-06-26T12:21:48;7.53;;;2.95;;
23743;SDS011;12052;53.478;10.182;2023-06-26T12:24:14;5.13;;;2.25;;
23743;SDS011;12052;53.478;10.182;2023-06-26T12:26:42;5.30;;;1.92;;
23743;SDS011;12052;53.478;10.182;2023-06-26T12:29:09;8.00;;;2.30;;
23743;SDS011;12052;53.478;10.182;2023-06-26T12:31:43;6.30;;;2.10;;
23743;SDS011;12052;53.478;10.182;2023-06-26T12:34:10;5.50;;;2.05;;
23743;SDS011;12052;53.478;10.182;2023-06-26T12:36:41;3.40;;;2.08;;
23743;SDS011;12052;53.478;10.182;2023-06-26T12:39:09;3.13;;;1.95;;
23743;SDS011;12052;53.478;10.182;2023-06-26T12:44:28;2.10;;;1.58;;
23743;SDS011;12052;53.478;10.182;2023-06-26T12:46:58;6.75;;;2.20;;
23743;SDS011;12052;53.478;10.182;2023-06-26T12:49:32;5.72;;;1.55;;
23743;SDS011;12052;53.478;10.182;2023-06-26T12:52:02;9.70;;;2.05;;
23743;SDS011;12052;53.478;10.182;2023-06-26T12:54:35;3.70;;;2.00;;
23743;SDS011;12052;53.478;10.182;2023-06-26T12:57:03;4.82;;;1.38;;
23743;SDS011;12052;53.478;10.182;2023-06-26T12:59:29;5.97;;;1.42;;
23743;SDS011;12052;53.478;10.182;2023-06-26T13:02:00;5.75;;;1.90;;
23743;SDS011;12052;53.478;10.182;2023-06-26T13:04:26;4.30;;;1.70;;
23743;SDS011;12052;53.478;10.182;2023-06-26T13:06:51;6.15;;;1.88;;
23743;SDS011;12052;53.478;10.182;2023-06-26T13:09:19;2.25;;;1.67;;
23743;SDS011;12052;53.478;10.182;2023-06-26T13:11:49;3.30;;;1.60;;
23743;SDS011;12052;53.478;10.182;2023-06-26T13:14:19;5.47;;;2.00;;
23743;SDS011;12052;53.478;10.182;2023-06-26T13:16:44;8.80;;;2.33;;
23743;SDS011;12052;53.478;10.182;2023-06-26T13:19:10;3.38;;;1.70;;
23743;SDS011;12052;53.478;10.182;2023-06-26T13:21:36;4.25;;;1.45;;
23743;SDS011;12052;53.478;10.182;2023-06-26T13:24:02;3.13;;;1.30;;
23743;SDS011;12052;53.478;10.182;2023-06-26T13:26:29;7.22;;;1.48;;
23743;SDS011;12052;53.478;10.182;2023-06-26T13:28:55;2.75;;;1.30;;
23743;SDS011;12052;53.478;10.182;2023-06-26T13:31:21;3.95;;;1.67;;
23743;SDS011;12052;53.478;10.182;2023-06-26T13:33:47;2.22;;;1.38;;
23743;SDS011;12052;53.478;10.182;2023-06-26T13:36:14;5.75;;;2.13;;
23743;SDS011;12052;53.478;10.182;2023-06-26T13:38:40;5.30;;;1.65;;
23743;SDS011;12052;53.478;10.182;2023-06-26T13:41:06;3.95;;;1.35;;
23743;SDS011;12052;53.478;10.182;2023-06-26T13:43:31;8.25;;;1.83;;
23743;SDS011;12052;53.478;10.182;2023-06-26T13:45:57;2.95;;;1.10;;
23743;SDS011;12052;53.478;10.182;2023-06-26T13:48:22;9.57;;;1.52;;
23743;SDS011;12052;53.478;10.182;2023-06-26T13:50:49;5.55;;;1.83;;
23743;SDS011;12052;53.478;10.182;2023-06-26T13:53:15;3.42;;;1.38;;
23743;SDS011;12052;53.478;10.182;2023-06-26T13:55:41;2.33;;;1.30;;
23743;SDS011;12052;53.478;10.182;2023-06-26T13:58:07;2.08;;;1.00;;
23743;SDS011;12052;53.478;10.182;2023-06-26T14:00:33;4.40;;;1.30;;
23743;SDS011;12052;53.478;10.182;2023-06-26T14:03:00;6.07;;;1.50;;
23743;SDS011;12052;53.478;10.182;2023-06-26T14:05:28;3.78;;;1.42;;
23743;SDS011;12052;53.478;10.182;2023-06-26T14:08:03;4.30;;;1.30;;
23743;SDS011;12052;53.478;10.182;2023-06-26T14:10:30;2.33;;;1.38;;
23743;SDS011;12052;53.478;10.182;2023-06-26T14:12:56;3.33;;;1.13;;
23743;SDS011;12052;53.478;10.182;2023-06-26T14:15:21;7.15;;;1.20;;
23743;SDS011;12052;53.478;10.182;2023-06-26T14:17:47;3.47;;;1.30;;
23743;SDS011;12052;53.478;10.182;2023-06-26T14:20:15;2.58;;;1.20;;
23743;SDS011;12052;53.478;10.182;2023-06-26T14:22:41;2.72;;;1.10;;
23743;SDS011;12052;53.478;10.182;2023-06-26T14:25:09;2.38;;;1.35;;
23743;SDS011;12052;53.478;10.182;2023-06-26T14:27:36;1.90;;;1.13;;
23743;SDS011;12052;53.478;10.182;2023-06-26T14:30:02;4.40;;;1.38;;
23743;SDS011;12052;53.478;10.182;2023-06-26T14:32:29;3.60;;;1.33;;
23743;SDS011;12052;53.478;10.182;2023-06-26T14:34:55;2.85;;;1.30;;
23743;SDS011;12052;53.478;10.182;2023-06-26T14:37:21;2.00;;;1.30;;
23743;SDS011;12052;53.478;10.182;2023-06-26T14:39:46;1.42;;;1.00;;
23743;SDS011;12052;53.478;10.182;2023-06-26T14:42:12;2.10;;;1.30;;
23743;SDS011;12052;53.478;10.182;2023-06-26T14:44:37;2.45;;;1.40;;
23743;SDS011;12052;53.478;10.182;2023-06-26T14:47:03;2.58;;;1.25;;
23743;SDS011;12052;53.478;10.182;2023-06-26T14:49:30;1.48;;;1.08;;
23743;SDS011;12052;53.478;10.182;2023-06-26T14:51:55;2.38;;;1.30;;